Spanish, Canada
Current Conditions -  °F | °C
As of 7:00 PM on Friday 24 Oct 2014 (Local Time) from CYZE Reporting Station
Overcast Overcast  
Wind Chill: 50°   Ceiling: 2800
Heat Index: 50°   Visibility: 9mi
Dew Point: 46°   Wind: 5mph
Humidity: 87%   Direction: 210°SSW
Pressure: 29.92"   Gusts: NA
Location:  46.19°N, 82.34°W
Report Text: CYZE 242300Z AUTO 21004KT 9SM OVC028 10/08 A2992 RMK SLP136
Loading
Personal Weather Stations






























Interactive Weather Map
Tropical Storm Tracking
New forecast layout! Learn more

10-Day Weather Forecast

Advertisements
Track Severe Weather on mobile